sensor_id;sensor_type;location;lat;lon;timestamp;temperature;humidity
6696;DHT22;3385;48.928;10.330;2022-09-09T00:04:28;11.70;99.90
6696;DHT22;3385;48.928;10.330;2022-09-09T00:09:28;11.70;99.90
6696;DHT22;3385;48.928;10.330;2022-09-09T00:12:23;11.70;99.90
6696;DHT22;3385;48.928;10.330;2022-09-09T00:15:07;11.70;99.90
6696;DHT22;3385;48.928;10.330;2022-09-09T00:17:55;11.70;99.90
6696;DHT22;3385;48.928;10.330;2022-09-09T00:20:40;11.70;99.90
6696;DHT22;3385;48.928;10.330;2022-09-09T00:23:31;11.70;99.90
6696;DHT22;3385;48.928;10.330;2022-09-09T00:31:33;11.70;99.90
6696;DHT22;3385;48.928;10.330;2022-09-09T00:34:20;11.80;99.90
6696;DHT22;3385;48.928;10.330;2022-09-09T00:36:49;11.80;99.90
6696;DHT22;3385;48.928;10.330;2022-09-09T00:39:38;11.70;99.90
6696;DHT22;3385;48.928;10.330;2022-09-09T00:42:15;11.70;99.90
6696;DHT22;3385;48.928;10.330;2022-09-09T00:45:00;11.70;99.90
6696;DHT22;3385;48.928;10.330;2022-09-09T00:47:46;11.80;99.90
6696;DHT22;3385;48.928;10.330;2022-09-09T00:50:49;11.80;99.90
6696;DHT22;3385;48.928;10.330;2022-09-09T00:56:30;11.80;99.90
6696;DHT22;3385;48.928;10.330;2022-09-09T00:59:18;11.80;99.90
6696;DHT22;3385;48.928;10.330;2022-09-09T01:01:45;11.80;99.90
6696;DHT22;3385;48.928;10.330;2022-09-09T01:04:21;11.80;99.90
6696;DHT22;3385;48.928;10.330;2022-09-09T01:07:01;11.80;99.90
6696;DHT22;3385;48.928;10.330;2022-09-09T01:12:16;11.80;99.90
6696;DHT22;3385;48.928;10.330;2022-09-09T01:14:47;11.80;99.90
6696;DHT22;3385;48.928;10.330;2022-09-09T01:17:23;11.90;99.90
6696;DHT22;3385;48.928;10.330;2022-09-09T01:20:13;11.80;99.90
6696;DHT22;3385;48.928;10.330;2022-09-09T01:28:36;11.50;99.90
6696;DHT22;3385;48.928;10.330;2022-09-09T01:31:04;11.40;99.90
6696;DHT22;3385;48.928;10.330;2022-09-09T01:33:31;11.40;99.90
6696;DHT22;3385;48.928;10.330;2022-09-09T01:39:05;11.40;99.90
6696;DHT22;3385;48.928;10.330;2022-09-09T01:41:31;11.40;99.90
6696;DHT22;3385;48.928;10.330;2022-09-09T01:43:57;11.40;99.90
6696;DHT22;3385;48.928;10.330;2022-09-09T01:46:22;11.50;99.90
6696;DHT22;3385;48.928;10.330;2022-09-09T01:48:51;11.40;99.90
6696;DHT22;3385;48.928;10.330;2022-09-09T01:51:17;11.40;99.90
6696;DHT22;3385;48.928;10.330;2022-09-09T01:53:43;11.50;99.90
6696;DHT22;3385;48.928;10.330;2022-09-09T02:01:58;11.60;99.90
6696;DHT22;3385;48.928;10.330;2022-09-09T02:04:40;11.50;99.90
6696;DHT22;3385;48.928;10.330;2022-09-09T02:12:40;11.60;99.90
6696;DHT22;3385;48.928;10.330;2022-09-09T02:15:24;11.60;99.90
6696;DHT22;3385;48.928;10.330;2022-09-09T02:17:52;11.60;99.90
6696;DHT22;3385;48.928;10.330;2022-09-09T02:20:20;11.70;99.90
6696;DHT22;3385;48.928;10.330;2022-09-09T02:22:49;11.70;99.90
6696;DHT22;3385;48.928;10.330;2022-09-09T02:25:17;11.70;99.90
6696;DHT22;3385;48.928;10.330;2022-09-09T02:27:46;11.70;99.90
6696;DHT22;3385;48.928;10.330;2022-09-09T02:30:13;11.70;99.90
6696;DHT22;3385;48.928;10.330;2022-09-09T02:32:40;11.70;99.90
6696;DHT22;3385;48.928;10.330;2022-09-09T02:35:12;11.70;99.90
6696;DHT22;3385;48.928;10.330;2022-09-09T02:37:40;11.80;99.90
6696;DHT22;3385;48.928;10.330;2022-09-09T02:40:09;11.80;99.90
6696;DHT22;3385;48.928;10.330;2022-09-09T02:42:43;11.80;99.90
6696;DHT22;3385;48.928;10.330;2022-09-09T02:45:12;11.80;99.90
6696;DHT22;3385;48.928;10.330;2022-09-09T02:47:47;11.80;99.90
6696;DHT22;3385;48.928;10.330;2022-09-09T02:53:06;11.80;99.90
6696;DHT22;3385;48.928;10.330;2022-09-09T02:56:36;11.70;99.90
6696;DHT22;3385;48.928;10.330;2022-09-09T02:58:41;11.70;99.90
6696;DHT22;3385;48.928;10.330;2022-09-09T03:01:07;11.70;99.90
6696;DHT22;3385;48.928;10.330;2022-09-09T03:03:34;11.70;99.90
6696;DHT22;3385;48.928;10.330;2022-09-09T03:06:00;11.70;99.90
6696;DHT22;3385;48.928;10.330;2022-09-09T03:08:26;11.80;99.90
6696;DHT22;3385;48.928;10.330;2022-09-09T03:10:54;11.80;99.90
6696;DHT22;3385;48.928;10.330;2022-09-09T03:13:20;11.80;99.90
6696;DHT22;3385;48.928;10.330;2022-09-09T03:15:48;11.80;99.90
6696;DHT22;3385;48.928;10.330;2022-09-09T03:18:14;11.90;99.90
6696;DHT22;3385;48.928;10.330;2022-09-09T03:20:39;11.90;99.90
6696;DHT22;3385;48.928;10.330;2022-09-09T03:23:07;11.90;99.90
6696;DHT22;3385;48.928;10.330;2022-09-09T03:25:33;11.90;99.90
6696;DHT22;3385;48.928;10.330;2022-09-09T03:27:59;11.90;99.90
6696;DHT22;3385;48.928;10.330;2022-09-09T03:30:27;11.90;99.90
6696;DHT22;3385;48.928;10.330;2022-09-09T03:32:53;11.80;99.90
6696;DHT22;3385;48.928;10.330;2022-09-09T03:35:20;11.80;99.90
6696;DHT22;3385;48.928;10.330;2022-09-09T03:37:46;11.80;99.90
6696;DHT22;3385;48.928;10.330;2022-09-09T03:40:12;11.70;99.90
6696;DHT22;3385;48.928;10.330;2022-09-09T03:42:39;11.60;99.90
6696;DHT22;3385;48.928;10.330;2022-09-09T03:45:06;11.70;99.90
6696;DHT22;3385;48.928;10.330;2022-09-09T03:47:32;11.70;99.90
6696;DHT22;3385;48.928;10.330;2022-09-09T03:49:58;11.70;99.90
6696;DHT22;3385;48.928;10.330;2022-09-09T03:52:24;11.70;99.90
6696;DHT22;3385;48.928;10.330;2022-09-09T03:54:51;11.60;99.90
6696;DHT22;3385;48.928;10.330;2022-09-09T03:57:18;11.60;99.90
6696;DHT22;3385;48.928;10.330;2022-09-09T03:59:44;11.60;99.90
6696;DHT22;3385;48.928;10.330;2022-09-09T04:02:10;11.50;99.90
6696;DHT22;3385;48.928;10.330;2022-09-09T04:04:36;11.50;99.90
6696;DHT22;3385;48.928;10.330;2022-09-09T04:07:02;11.50;99.90
6696;DHT22;3385;48.928;10.330;2022-09-09T04:09:28;11.50;99.90
6696;DHT22;3385;48.928;10.330;2022-09-09T04:11:53;11.50;99.90
6696;DHT22;3385;48.928;10.330;2022-09-09T04:14:20;11.50;99.90
6696;DHT22;3385;48.928;10.330;2022-09-09T04:16:46;11.50;99.90
6696;DHT22;3385;48.928;10.330;2022-09-09T04:19:13;11.60;99.90
6696;DHT22;3385;48.928;10.330;2022-09-09T04:21:40;11.60;99.90
6696;DHT22;3385;48.928;10.330;2022-09-09T04:24:09;11.70;99.90
6696;DHT22;3385;48.928;10.330;2022-09-09T04:26:36;11.60;99.90
6696;DHT22;3385;48.928;10.330;2022-09-09T04:29:05;11.60;99.90
6696;DHT22;3385;48.928;10.330;2022-09-09T04:31:32;11.60;99.90
6696;DHT22;3385;48.928;10.330;2022-09-09T04:33:58;11.70;99.90
6696;DHT22;3385;48.928;10.330;2022-09-09T04:36:24;11.80;99.90
6696;DHT22;3385;48.928;10.330;2022-09-09T04:38:49;11.90;99.90
6696;DHT22;3385;48.928;10.330;2022-09-09T04:41:15;11.90;99.90
6696;DHT22;3385;48.928;10.330;2022-09-09T04:43:42;12.00;99.90
6696;DHT22;3385;48.928;10.330;2022-09-09T04:46:08;12.10;99.90
6696;DHT22;3385;48.928;10.330;2022-09-09T04:48:34;12.10;99.90
6696;DHT22;3385;48.928;10.330;2022-09-09T04:51:03;12.20;99.90
6696;DHT22;3385;48.928;10.330;2022-09-09T04:53:30;12.20;99.90
6696;DHT22;3385;48.928;10.330;2022-09-09T04:56:07;12.30;99.90
6696;DHT22;3385;48.928;10.330;2022-09-09T04:58:35;12.60;99.90
6696;DHT22;3385;48.928;10.330;2022-09-09T05:03:34;13.20;99.90
6696;DHT22;3385;48.928;10.330;2022-09-09T05:06:08;13.40;99.90
6696;DHT22;3385;48.928;10.330;2022-09-09T05:08:39;13.60;99.90
6696;DHT22;3385;48.928;10.330;2022-09-09T05:11:18;13.70;99.90
6696;DHT22;3385;48.928;10.330;2022-09-09T05:13:45;13.90;99.90
6696;DHT22;3385;48.928;10.330;2022-09-09T05:16:12;14.10;99.90
6696;DHT22;3385;48.928;10.330;2022-09-09T05:18:39;14.20;99.90
6696;DHT22;3385;48.928;10.330;2022-09-09T05:21:05;14.20;99.90
6696;DHT22;3385;48.928;10.330;2022-09-09T05:23:32;14.20;99.90
6696;DHT22;3385;48.928;10.330;2022-09-09T05:26:00;14.20;99.90
6696;DHT22;3385;48.928;10.330;2022-09-09T05:28:27;13.90;99.90
6696;DHT22;3385;48.928;10.330;2022-09-09T05:31:01;13.70;99.90
6696;DHT22;3385;48.928;10.330;2022-09-09T05:33:29;13.50;99.90
6696;DHT22;3385;48.928;10.330;2022-09-09T05:36:03;13.40;99.90
6696;DHT22;3385;48.928;10.330;2022-09-09T05:38:31;13.40;99.90
6696;DHT22;3385;48.928;10.330;2022-09-09T05:40:58;13.40;99.90
6696;DHT22;3385;48.928;10.330;2022-09-09T05:43:24;13.30;99.90
6696;DHT22;3385;48.928;10.330;2022-09-09T05:46:05;13.20;99.90
6696;DHT22;3385;48.928;10.330;2022-09-09T05:48:32;13.20;99.90
6696;DHT22;3385;48.928;10.330;2022-09-09T05:50:59;13.30;99.90
6696;DHT22;3385;48.928;10.330;2022-09-09T05:53:26;13.30;99.90
6696;DHT22;3385;48.928;10.330;2022-09-09T05:56:02;13.30;99.90
6696;DHT22;3385;48.928;10.330;2022-09-09T05:58:30;13.30;99.90
6696;DHT22;3385;48.928;10.330;2022-09-09T06:01:15;13.30;99.90
6696;DHT22;3385;48.928;10.330;2022-09-09T06:03:42;13.30;99.90
6696;DHT22;3385;48.928;10.330;2022-09-09T06:06:10;13.30;99.90
6696;DHT22;3385;48.928;10.330;2022-09-09T06:08:38;13.40;99.90
6696;DHT22;3385;48.928;10.330;2022-09-09T06:11:06;13.40;99.90
6696;DHT22;3385;48.928;10.330;2022-09-09T06:13:32;13.40;99.90
6696;DHT22;3385;48.928;10.330;2022-09-09T06:15:58;13.40;99.90
6696;DHT22;3385;48.928;10.330;2022-09-09T06:18:25;13.50;99.90
6696;DHT22;3385;48.928;10.330;2022-09-09T06:21:02;13.70;99.90
6696;DHT22;3385;48.928;10.330;2022-09-09T06:23:33;13.90;99.90
6696;DHT22;3385;48.928;10.330;2022-09-09T06:26:12;14.00;99.90
6696;DHT22;3385;48.928;10.330;2022-09-09T06:28:38;14.10;99.90
6696;DHT22;3385;48.928;10.330;2022-09-09T06:31:07;14.20;99.90
6696;DHT22;3385;48.928;10.330;2022-09-09T06:33:34;14.20;99.90
6696;DHT22;3385;48.928;10.330;2022-09-09T06:36:02;14.30;99.90
6696;DHT22;3385;48.928;10.330;2022-09-09T06:38:29;14.50;99.90
6696;DHT22;3385;48.928;10.330;2022-09-09T06:40:56;14.60;99.90
6696;DHT22;3385;48.928;10.330;2022-09-09T06:43:23;14.70;99.90
6696;DHT22;3385;48.928;10.330;2022-09-09T06:45:56;14.80;99.90
6696;DHT22;3385;48.928;10.330;2022-09-09T06:48:23;14.90;99.90
6696;DHT22;3385;48.928;10.330;2022-09-09T06:50:59;15.00;99.90
6696;DHT22;3385;48.928;10.330;2022-09-09T06:53:26;15.10;99.90
6696;DHT22;3385;48.928;10.330;2022-09-09T06:55:52;15.30;99.90
6696;DHT22;3385;48.928;10.330;2022-09-09T06:58:18;15.50;99.90
6696;DHT22;3385;48.928;10.330;2022-09-09T07:00:44;15.70;99.90
6696;DHT22;3385;48.928;10.330;2022-09-09T07:03:10;15.80;99.90
6696;DHT22;3385;48.928;10.330;2022-09-09T07:05:36;16.00;99.90
6696;DHT22;3385;48.928;10.330;2022-09-09T07:08:02;16.20;99.90
6696;DHT22;3385;48.928;10.330;2022-09-09T07:10:28;16.40;99.90
6696;DHT22;3385;48.928;10.330;2022-09-09T07:12:54;16.50;99.90
6696;DHT22;3385;48.928;10.330;2022-09-09T07:15:20;16.60;99.90
6696;DHT22;3385;48.928;10.330;2022-09-09T07:17:47;16.80;99.90
6696;DHT22;3385;48.928;10.330;2022-09-09T07:20:14;16.90;99.90
6696;DHT22;3385;48.928;10.330;2022-09-09T07:22:40;17.00;99.90
6696;DHT22;3385;48.928;10.330;2022-09-09T07:25:07;17.20;99.90
6696;DHT22;3385;48.928;10.330;2022-09-09T07:27:33;17.30;99.90
6696;DHT22;3385;48.928;10.330;2022-09-09T07:29:59;17.40;99.90
6696;DHT22;3385;48.928;10.330;2022-09-09T07:32:24;17.50;99.90
6696;DHT22;3385;48.928;10.330;2022-09-09T07:34:51;17.60;99.90
6696;DHT22;3385;48.928;10.330;2022-09-09T07:37:17;17.70;99.90
6696;DHT22;3385;48.928;10.330;2022-09-09T07:39:43;17.90;99.90
6696;DHT22;3385;48.928;10.330;2022-09-09T07:42:09;17.90;99.90
6696;DHT22;3385;48.928;10.330;2022-09-09T07:44:37;18.00;99.90
6696;DHT22;3385;48.928;10.330;2022-09-09T07:47:05;18.00;99.90
6696;DHT22;3385;48.928;10.330;2022-09-09T07:49:31;18.10;99.90
6696;DHT22;3385;48.928;10.330;2022-09-09T07:51:58;18.10;99.90
6696;DHT22;3385;48.928;10.330;2022-09-09T07:54:24;18.20;99.90
6696;DHT22;3385;48.928;10.330;2022-09-09T07:56:51;18.20;99.90
6696;DHT22;3385;48.928;10.330;2022-09-09T07:59:17;18.30;99.90
6696;DHT22;3385;48.928;10.330;2022-09-09T08:01:46;18.30;99.90
6696;DHT22;3385;48.928;10.330;2022-09-09T08:04:15;18.30;99.90
6696;DHT22;3385;48.928;10.330;2022-09-09T08:06:44;18.40;99.90
6696;DHT22;3385;48.928;10.330;2022-09-09T08:09:12;18.50;99.90
6696;DHT22;3385;48.928;10.330;2022-09-09T08:11:39;18.60;99.90
6696;DHT22;3385;48.928;10.330;2022-09-09T08:14:06;18.70;99.90
6696;DHT22;3385;48.928;10.330;2022-09-09T08:16:41;18.70;99.90
6696;DHT22;3385;48.928;10.330;2022-09-09T08:19:07;18.80;99.90
6696;DHT22;3385;48.928;10.330;2022-09-09T08:21:35;18.80;99.90
6696;DHT22;3385;48.928;10.330;2022-09-09T08:24:02;18.90;99.90
6696;DHT22;3385;48.928;10.330;2022-09-09T08:26:30;19.10;99.90
6696;DHT22;3385;48.928;10.330;2022-09-09T08:28:58;19.20;99.90
6696;DHT22;3385;48.928;10.330;2022-09-09T08:31:50;19.30;99.90
6696;DHT22;3385;48.928;10.330;2022-09-09T08:34:14;19.40;99.90
6696;DHT22;3385;48.928;10.330;2022-09-09T08:36:43;19.50;99.90
6696;DHT22;3385;48.928;10.330;2022-09-09T08:39:11;19.50;99.90
6696;DHT22;3385;48.928;10.330;2022-09-09T08:50:35;20.00;99.90
6696;DHT22;3385;48.928;10.330;2022-09-09T08:53:28;19.90;99.90
6696;DHT22;3385;48.928;10.330;2022-09-09T08:56:01;19.70;99.90
6696;DHT22;3385;48.928;10.330;2022-09-09T08:58:33;19.40;99.90
6696;DHT22;3385;48.928;10.330;2022-09-09T09:03:52;19.40;99.90
6696;DHT22;3385;48.928;10.330;2022-09-09T09:11:38;19.70;99.90
6696;DHT22;3385;48.928;10.330;2022-09-09T09:14:17;19.80;99.90
6696;DHT22;3385;48.928;10.330;2022-09-09T09:16:56;19.80;99.90
6696;DHT22;3385;48.928;10.330;2022-09-09T09:19:23;19.90;99.90
6696;DHT22;3385;48.928;10.330;2022-09-09T09:24:43;20.50;99.90
6696;DHT22;3385;48.928;10.330;2022-09-09T09:27:15;20.80;99.90
6696;DHT22;3385;48.928;10.330;2022-09-09T09:29:42;21.00;99.90
6696;DHT22;3385;48.928;10.330;2022-09-09T09:32:14;21.10;99.90
6696;DHT22;3385;48.928;10.330;2022-09-09T09:34:41;20.90;99.90
6696;DHT22;3385;48.928;10.330;2022-09-09T09:37:16;20.70;99.90
6696;DHT22;3385;48.928;10.330;2022-09-09T09:39:45;20.60;99.90
6696;DHT22;3385;48.928;10.330;2022-09-09T09:42:16;20.50;99.90
6696;DHT22;3385;48.928;10.330;2022-09-09T09:44:42;20.40;99.90
6696;DHT22;3385;48.928;10.330;2022-09-09T09:47:14;20.30;99.90
6696;DHT22;3385;48.928;10.330;2022-09-09T09:49:56;20.30;99.90
6696;DHT22;3385;48.928;10.330;2022-09-09T09:52:28;20.30;99.90
6696;DHT22;3385;48.928;10.330;2022-09-09T09:54:56;20.40;99.90
6696;DHT22;3385;48.928;10.330;2022-09-09T09:57:30;20.60;99.90
6696;DHT22;3385;48.928;10.330;2022-09-09T10:00:17;20.80;99.90
6696;DHT22;3385;48.928;10.330;2022-09-09T10:02:45;20.90;99.90
6696;DHT22;3385;48.928;10.330;2022-09-09T10:05:17;21.00;99.90
6696;DHT22;3385;48.928;10.330;2022-09-09T10:07:44;21.40;99.90
6696;DHT22;3385;48.928;10.330;2022-09-09T10:10:20;21.70;99.90
6696;DHT22;3385;48.928;10.330;2022-09-09T10:13:18;22.10;99.90
6696;DHT22;3385;48.928;10.330;2022-09-09T10:16:01;22.30;99.90
6696;DHT22;3385;48.928;10.330;2022-09-09T10:22:08;23.00;99.90
6696;DHT22;3385;48.928;10.330;2022-09-09T10:30:19;23.40;99.90
6696;DHT22;3385;48.928;10.330;2022-09-09T10:35:33;22.50;99.90
6696;DHT22;3385;48.928;10.330;2022-09-09T10:46:06;22.00;99.90
6696;DHT22;3385;48.928;10.330;2022-09-09T10:49:07;22.00;99.90
6696;DHT22;3385;48.928;10.330;2022-09-09T10:52:26;22.10;99.90
6696;DHT22;3385;48.928;10.330;2022-09-09T10:55:00;22.30;99.90
6696;DHT22;3385;48.928;10.330;2022-09-09T11:02:41;22.20;99.90
6696;DHT22;3385;48.928;10.330;2022-09-09T11:08:10;22.40;99.90
6696;DHT22;3385;48.928;10.330;2022-09-09T11:18:46;24.10;99.90
6696;DHT22;3385;48.928;10.330;2022-09-09T11:21:37;24.00;99.90
6696;DHT22;3385;48.928;10.330;2022-09-09T11:24:10;23.90;99.90
6696;DHT22;3385;48.928;10.330;2022-09-09T11:26:42;23.90;99.90
6696;DHT22;3385;48.928;10.330;2022-09-09T11:42:24;25.50;99.90
6696;DHT22;3385;48.928;10.330;2022-09-09T11:44:50;26.70;98.10
6696;DHT22;3385;48.928;10.330;2022-09-09T11:47:23;27.10;95.50
6696;DHT22;3385;48.928;10.330;2022-09-09T11:49:52;27.50;92.00
6696;DHT22;3385;48.928;10.330;2022-09-09T11:52:25;28.40;81.50
6696;DHT22;3385;48.928;10.330;2022-09-09T11:54:54;27.70;78.90
6696;DHT22;3385;48.928;10.330;2022-09-09T11:57:47;26.50;81.40
6696;DHT22;3385;48.928;10.330;2022-09-09T12:00:35;25.40;83.60
6696;DHT22;3385;48.928;10.330;2022-09-09T12:03:06;24.60;86.60
6696;DHT22;3385;48.928;10.330;2022-09-09T12:05:52;24.10;91.20
6696;DHT22;3385;48.928;10.330;2022-09-09T12:08:27;23.50;90.80
6696;DHT22;3385;48.928;10.330;2022-09-09T12:10:57;23.70;90.70
6696;DHT22;3385;48.928;10.330;2022-09-09T12:13:25;24.70;85.80
6696;DHT22;3385;48.928;10.330;2022-09-09T12:15:57;24.60;82.70
6696;DHT22;3385;48.928;10.330;2022-09-09T12:28:43;24.70;75.40
6696;DHT22;3385;48.928;10.330;2022-09-09T12:31:36;25.50;76.00
6696;DHT22;3385;48.928;10.330;2022-09-09T12:34:11;26.30;72.60
6696;DHT22;3385;48.928;10.330;2022-09-09T12:36:38;28.30;69.60
6696;DHT22;3385;48.928;10.330;2022-09-09T12:41:53;31.00;60.30
6696;DHT22;3385;48.928;10.330;2022-09-09T12:44:24;31.40;57.70
6696;DHT22;3385;48.928;10.330;2022-09-09T12:46:51;30.50;56.80
6696;DHT22;3385;48.928;10.330;2022-09-09T12:49:36;29.20;59.20
6696;DHT22;3385;48.928;10.330;2022-09-09T12:52:36;28.20;57.00
6696;DHT22;3385;48.928;10.330;2022-09-09T12:55:04;29.70;55.70
6696;DHT22;3385;48.928;10.330;2022-09-09T12:57:36;30.70;53.00
6696;DHT22;3385;48.928;10.330;2022-09-09T13:00:12;31.40;51.80
6696;DHT22;3385;48.928;10.330;2022-09-09T13:03:00;31.80;50.10
6696;DHT22;3385;48.928;10.330;2022-09-09T13:05:36;32.50;48.20
6696;DHT22;3385;48.928;10.330;2022-09-09T13:08:11;33.40;47.50
6696;DHT22;3385;48.928;10.330;2022-09-09T13:10:46;33.10;43.60
6696;DHT22;3385;48.928;10.330;2022-09-09T13:13:21;30.80;45.60
6696;DHT22;3385;48.928;10.330;2022-09-09T13:15:53;28.00;51.50
6696;DHT22;3385;48.928;10.330;2022-09-09T13:18:31;25.30;57.40
6696;DHT22;3385;48.928;10.330;2022-09-09T13:20:59;23.40;68.60
6696;DHT22;3385;48.928;10.330;2022-09-09T13:23:36;22.00;78.20
6696;DHT22;3385;48.928;10.330;2022-09-09T13:26:23;23.40;76.70
6696;DHT22;3385;48.928;10.330;2022-09-09T13:28:50;25.60;66.10
6696;DHT22;3385;48.928;10.330;2022-09-09T13:31:30;25.50;61.80
6696;DHT22;3385;48.928;10.330;2022-09-09T13:33:58;25.50;65.10
6696;DHT22;3385;48.928;10.330;2022-09-09T13:36:33;26.50;61.90
6696;DHT22;3385;48.928;10.330;2022-09-09T13:39:02;27.30;58.60
6696;DHT22;3385;48.928;10.330;2022-09-09T13:41:30;28.40;57.40
6696;DHT22;3385;48.928;10.330;2022-09-09T13:43:57;29.80;56.10
6696;DHT22;3385;48.928;10.330;2022-09-09T13:46:40;30.70;52.80
6696;DHT22;3385;48.928;10.330;2022-09-09T13:49:28;31.10;50.40
6696;DHT22;3385;48.928;10.330;2022-09-09T13:52:11;30.60;50.40
6696;DHT22;3385;48.928;10.330;2022-09-09T13:54:40;30.70;50.80
6696;DHT22;3385;48.928;10.330;2022-09-09T13:57:18;31.00;49.80
6696;DHT22;3385;48.928;10.330;2022-09-09T13:59:46;31.60;48.20
6696;DHT22;3385;48.928;10.330;2022-09-09T14:02:12;32.30;47.30
6696;DHT22;3385;48.928;10.330;2022-09-09T14:04:38;32.90;44.90
6696;DHT22;3385;48.928;10.330;2022-09-09T14:07:12;33.20;42.70
6696;DHT22;3385;48.928;10.330;2022-09-09T14:09:39;33.10;42.90
6696;DHT22;3385;48.928;10.330;2022-09-09T14:12:12;33.30;41.90
6696;DHT22;3385;48.928;10.330;2022-09-09T14:14:38;33.70;40.70
6696;DHT22;3385;48.928;10.330;2022-09-09T14:17:04;33.80;40.00
6696;DHT22;3385;48.928;10.330;2022-09-09T14:19:30;33.40;38.80
6696;DHT22;3385;48.928;10.330;2022-09-09T14:21:59;32.50;39.10
6696;DHT22;3385;48.928;10.330;2022-09-09T14:24:25;32.00;39.70
6696;DHT22;3385;48.928;10.330;2022-09-09T14:26:50;31.60;41.20
6696;DHT22;3385;48.928;10.330;2022-09-09T14:29:16;32.30;40.90
6696;DHT22;3385;48.928;10.330;2022-09-09T14:31:42;32.10;40.00
6696;DHT22;3385;48.928;10.330;2022-09-09T14:34:08;31.80;41.30
6696;DHT22;3385;48.928;10.330;2022-09-09T14:36:37;31.70;41.30
6696;DHT22;3385;48.928;10.330;2022-09-09T14:39:03;31.60;42.50
6696;DHT22;3385;48.928;10.330;2022-09-09T14:41:30;31.50;42.70
6696;DHT22;3385;48.928;10.330;2022-09-09T14:43:56;31.20;43.10
6696;DHT22;3385;48.928;10.330;2022-09-09T14:46:22;30.90;43.40
6696;DHT22;3385;48.928;10.330;2022-09-09T14:48:49;29.50;46.10
6696;DHT22;3385;48.928;10.330;2022-09-09T14:51:25;28.00;49.20
6696;DHT22;3385;48.928;10.330;2022-09-09T14:53:58;26.90;52.30
6696;DHT22;3385;48.928;10.330;2022-09-09T14:56:29;27.40;52.80
6696;DHT22;3385;48.928;10.330;2022-09-09T14:58:56;27.60;52.10
6696;DHT22;3385;48.928;10.330;2022-09-09T15:01:26;26.50;54.30
6696;DHT22;3385;48.928;10.330;2022-09-09T15:04:03;25.50;58.20
6696;DHT22;3385;48.928;10.330;2022-09-09T15:06:33;24.60;63.20
6696;DHT22;3385;48.928;10.330;2022-09-09T15:08:59;23.90;67.80
6696;DHT22;3385;48.928;10.330;2022-09-09T15:11:31;23.20;69.70
6696;DHT22;3385;48.928;10.330;2022-09-09T15:13:59;22.70;73.50
6696;DHT22;3385;48.928;10.330;2022-09-09T15:16:27;22.40;75.60
6696;DHT22;3385;48.928;10.330;2022-09-09T15:18:56;22.20;77.10
6696;DHT22;3385;48.928;10.330;2022-09-09T15:21:25;22.00;79.10
6696;DHT22;3385;48.928;10.330;2022-09-09T15:23:51;21.90;80.60
6696;DHT22;3385;48.928;10.330;2022-09-09T15:26:18;22.00;81.30
6696;DHT22;3385;48.928;10.330;2022-09-09T15:28:45;22.00;83.20
6696;DHT22;3385;48.928;10.330;2022-09-09T15:31:17;23.30;77.20
6696;DHT22;3385;48.928;10.330;2022-09-09T15:34:04;25.50;66.70
6696;DHT22;3385;48.928;10.330;2022-09-09T15:36:32;27.40;61.10
6696;DHT22;3385;48.928;10.330;2022-09-09T15:39:03;28.50;54.70
6696;DHT22;3385;48.928;10.330;2022-09-09T15:41:30;29.50;53.20
6696;DHT22;3385;48.928;10.330;2022-09-09T15:43:57;29.70;50.80
6696;DHT22;3385;48.928;10.330;2022-09-09T15:46:46;29.40;50.80
6696;DHT22;3385;48.928;10.330;2022-09-09T15:49:19;29.60;51.30
6696;DHT22;3385;48.928;10.330;2022-09-09T15:51:47;29.60;50.00
6696;DHT22;3385;48.928;10.330;2022-09-09T15:54:17;28.90;49.50
6696;DHT22;3385;48.928;10.330;2022-09-09T15:56:44;28.50;51.40
6696;DHT22;3385;48.928;10.330;2022-09-09T15:59:10;28.30;51.80
6696;DHT22;3385;48.928;10.330;2022-09-09T16:01:37;28.30;52.10
6696;DHT22;3385;48.928;10.330;2022-09-09T16:04:05;28.30;52.00
6696;DHT22;3385;48.928;10.330;2022-09-09T16:06:32;28.50;51.30
6696;DHT22;3385;48.928;10.330;2022-09-09T16:08:59;27.50;53.00
6696;DHT22;3385;48.928;10.330;2022-09-09T16:11:31;26.00;55.80
6696;DHT22;3385;48.928;10.330;2022-09-09T16:13:58;24.60;60.50
6696;DHT22;3385;48.928;10.330;2022-09-09T16:16:26;23.50;65.20
6696;DHT22;3385;48.928;10.330;2022-09-09T16:18:54;22.80;68.70
6696;DHT22;3385;48.928;10.330;2022-09-09T16:21:29;23.10;71.90
6696;DHT22;3385;48.928;10.330;2022-09-09T16:23:56;24.40;66.20
6696;DHT22;3385;48.928;10.330;2022-09-09T16:26:23;25.30;61.60
6696;DHT22;3385;48.928;10.330;2022-09-09T16:28:49;25.80;57.90
6696;DHT22;3385;48.928;10.330;2022-09-09T16:31:20;26.20;57.10
6696;DHT22;3385;48.928;10.330;2022-09-09T16:33:47;26.30;57.00
6696;DHT22;3385;48.928;10.330;2022-09-09T16:36:19;26.30;56.60
6696;DHT22;3385;48.928;10.330;2022-09-09T16:38:45;25.90;56.30
6696;DHT22;3385;48.928;10.330;2022-09-09T16:41:12;24.80;57.20
6696;DHT22;3385;48.928;10.330;2022-09-09T16:43:39;23.40;62.10
6696;DHT22;3385;48.928;10.330;2022-09-09T16:46:17;22.60;68.40
6696;DHT22;3385;48.928;10.330;2022-09-09T16:48:44;21.80;72.10
6696;DHT22;3385;48.928;10.330;2022-09-09T16:51:20;21.20;75.00
6696;DHT22;3385;48.928;10.330;2022-09-09T16:53:46;20.70;78.90
6696;DHT22;3385;48.928;10.330;2022-09-09T16:56:21;20.30;80.20
6696;DHT22;3385;48.928;10.330;2022-09-09T16:58:56;19.90;83.00
6696;DHT22;3385;48.928;10.330;2022-09-09T17:01:26;19.80;84.90
6696;DHT22;3385;48.928;10.330;2022-09-09T17:03:53;19.50;85.90
6696;DHT22;3385;48.928;10.330;2022-09-09T17:06:19;19.50;88.10
6696;DHT22;3385;48.928;10.330;2022-09-09T17:08:45;19.30;87.30
6696;DHT22;3385;48.928;10.330;2022-09-09T17:11:16;19.20;88.50
6696;DHT22;3385;48.928;10.330;2022-09-09T17:13:42;19.10;88.60
6696;DHT22;3385;48.928;10.330;2022-09-09T17:16:09;19.10;89.50
6696;DHT22;3385;48.928;10.330;2022-09-09T17:18:35;18.90;89.80
6696;DHT22;3385;48.928;10.330;2022-09-09T17:21:12;18.80;90.30
6696;DHT22;3385;48.928;10.330;2022-09-09T17:23:40;18.70;90.30
6696;DHT22;3385;48.928;10.330;2022-09-09T17:26:08;18.70;91.20
6696;DHT22;3385;48.928;10.330;2022-09-09T17:28:36;18.50;91.50
6696;DHT22;3385;48.928;10.330;2022-09-09T17:31:02;18.50;92.10
6696;DHT22;3385;48.928;10.330;2022-09-09T17:33:30;18.40;92.10
6696;DHT22;3385;48.928;10.330;2022-09-09T17:36:01;18.40;92.20
6696;DHT22;3385;48.928;10.330;2022-09-09T17:38:28;18.30;92.30
6696;DHT22;3385;48.928;10.330;2022-09-09T17:41:14;18.20;92.10
6696;DHT22;3385;48.928;10.330;2022-09-09T17:43:40;18.20;92.10
6696;DHT22;3385;48.928;10.330;2022-09-09T17:48:31;18.10;92.70
6696;DHT22;3385;48.928;10.330;2022-09-09T17:50:58;18.00;92.80
6696;DHT22;3385;48.928;10.330;2022-09-09T17:53:24;17.90;92.70
6696;DHT22;3385;48.928;10.330;2022-09-09T17:55:51;17.80;93.10
6696;DHT22;3385;48.928;10.330;2022-09-09T17:58:17;17.80;93.30
6696;DHT22;3385;48.928;10.330;2022-09-09T18:00:42;17.80;93.90
6696;DHT22;3385;48.928;10.330;2022-09-09T18:03:08;17.80;93.80
6696;DHT22;3385;48.928;10.330;2022-09-09T18:05:34;17.70;94.20
6696;DHT22;3385;48.928;10.330;2022-09-09T18:08:00;17.70;95.30
6696;DHT22;3385;48.928;10.330;2022-09-09T18:10:26;17.60;96.30
6696;DHT22;3385;48.928;10.330;2022-09-09T18:12:51;17.60;97.20
6696;DHT22;3385;48.928;10.330;2022-09-09T18:15:18;17.50;97.80